Time;durP1;ratioP1;P1;durP2;ratioP2;P2;SDS_P1;SDS_P2;PMS_P1;PMS_P2;Temp;Humidity;BMP_temperature;BMP_pressure;BME280_temperature;BME280_humidity;BME280_pressure;Samples;Min_cycle;Max_cycle;Signal;HPM_P1;HPM_P2
2021/07/07 00:02:09;;;;;;;18.27;16.67;;;28.90;55.80;;;;;;4830682;55;21077;-19
2021/07/07 00:07:10;;;;;;;19.15;17.50;;;28.90;55.80;;;;;;4811707;55;21528;-21
2021/07/07 00:12:11;;;;;;;18.70;17.02;;;28.90;55.80;;;;;;4748402;55;21085;-21
2021/07/07 00:17:13;;;;;;;18.55;16.95;;;28.90;55.80;;;;;;4780911;55;22012;-15
2021/07/07 00:22:14;;;;;;;17.85;16.20;;;28.90;55.80;;;;;;4753622;55;21585;-23
2021/07/07 00:27:15;;;;;;;18.75;17.05;;;28.90;55.90;;;;;;4780356;55;21540;-20
2021/07/07 00:32:17;;;;;;;19.17;17.48;;;28.90;55.80;;;;;;4806591;55;21030;-18
2021/07/07 00:37:18;;;;;;;17.90;16.40;;;28.90;55.80;;;;;;4788240;55;21667;-22
2021/07/07 00:42:19;;;;;;;18.55;16.95;;;28.90;55.80;;;;;;4800280;55;21058;-23
2021/07/07 00:47:20;;;;;;;17.87;16.37;;;28.90;55.90;;;;;;4766968;55;21010;-20
2021/07/07 00:52:21;;;;;;;18.00;16.50;;;28.90;55.90;;;;;;4756698;55;21026;-21
2021/07/07 00:57:27;;;;;;;17.52;15.93;;;28.90;55.80;;;;;;4749861;55;21065;-19
2021/07/07 01:02:29;;;;;;;17.73;16.23;;;28.90;55.80;;;;;;4738657;55;21596;-21
2021/07/07 01:07:29;;;;;;;18.12;16.62;;;28.90;55.80;;;;;;4775084;55;21140;-23
2021/07/07 01:12:32;;;;;;;17.48;15.98;;;28.90;55.90;;;;;;4741727;55;20994;-22
2021/07/07 01:17:33;;;;;;;17.75;16.17;;;28.90;55.80;;;;;;4764176;55;21587;-20
2021/07/07 01:22:34;;;;;;;17.17;15.75;;;28.90;55.90;;;;;;4738883;59;21069;-21
2021/07/07 01:27:36;;;;;;;18.00;16.45;;;28.90;55.90;;;;;;4767275;55;21105;-24
2021/07/07 01:32:37;;;;;;;16.27;14.87;;;28.90;55.80;;;;;;4754401;55;21081;-21
2021/07/07 01:37:39;;;;;;;18.05;16.45;;;28.90;55.90;;;;;;4742135;55;21006;-19
2021/07/07 01:42:40;;;;;;;18.10;16.60;;;28.90;55.90;;;;;;4761814;55;21149;-21
2021/07/07 01:47:42;;;;;;;17.10;15.60;;;28.90;56.00;;;;;;4740214;55;21026;-22
2021/07/07 01:52:45;;;;;;;16.80;15.30;;;28.90;55.90;;;;;;4777136;55;21014;-15
2021/07/07 01:57:47;;;;;;;15.93;14.63;;;28.90;55.90;;;;;;4801567;55;21481;-19
2021/07/07 02:02:49;;;;;;;16.42;15.02;;;28.90;56.00;;;;;;4777659;55;21042;-18
2021/07/07 02:07:50;;;;;;;16.73;15.32;;;28.90;55.90;;;;;;4785622;55;21029;-20
2021/07/07 02:12:51;;;;;;;17.17;15.73;;;28.90;55.90;;;;;;4760587;55;21049;-19
2021/07/07 02:17:53;;;;;;;16.67;15.27;;;28.90;55.90;;;;;;4745545;55;21006;-18
2021/07/07 02:22:54;;;;;;;15.93;14.60;;;28.90;56.00;;;;;;4758663;55;21026;-24
2021/07/07 02:27:57;;;;;;;16.12;14.82;;;28.90;56.00;;;;;;4752063;55;21129;-13
2021/07/07 02:32:59;;;;;;;15.75;14.45;;;28.90;55.90;;;;;;4767489;55;21136;-19
2021/07/07 02:38:02;;;;;;;16.50;15.10;;;28.90;56.00;;;;;;4737489;59;21038;-22
2021/07/07 02:43:05;;;;;;;17.12;15.65;;;28.90;55.90;;;;;;4752145;55;21002;-20
2021/07/07 02:48:08;;;;;;;16.58;15.18;;;28.90;55.90;;;;;;4794270;55;21021;-22
2021/07/07 02:53:11;;;;;;;16.00;14.70;;;28.90;56.60;;;;;;4771314;55;21093;-18
2021/07/07 02:58:13;;;;;;;15.70;14.40;;;28.90;55.90;;;;;;4784907;55;21053;-21
2021/07/07 03:03:22;;;;;;;16.62;15.13;;;28.90;55.80;;;;;;4766334;55;21120;-22
2021/07/07 03:08:26;;;;;;;17.23;15.73;;;28.90;55.70;;;;;;4748936;55;20982;-21
2021/07/07 03:13:28;;;;;;;15.52;14.23;;;28.90;55.70;;;;;;4778652;55;21002;-19
2021/07/07 03:18:29;;;;;;;14.50;13.30;;;28.90;55.90;;;;;;4744980;55;21018;-15
2021/07/07 03:23:29;;;;;;;15.07;13.77;;;28.80;55.60;;;;;;4748317;55;21082;-21
2021/07/07 03:28:30;;;;;;;15.57;14.27;;;28.80;55.60;;;;;;4737635;59;21074;-20
2021/07/07 03:33:31;;;;;;;15.82;14.50;;;28.80;55.60;;;;;;4774753;55;21504;-18
2021/07/07 03:38:32;;;;;;;15.63;14.32;;;28.80;55.50;;;;;;4775233;55;21121;-22
2021/07/07 03:43:33;;;;;;;14.75;13.45;;;28.80;55.50;;;;;;4766631;55;21600;-19
2021/07/07 03:48:34;;;;;;;15.70;14.30;;;28.80;55.50;;;;;;4750349;55;21026;-24
2021/07/07 03:53:34;;;;;;;15.32;14.02;;;28.80;55.50;;;;;;4750730;55;21105;-22
2021/07/07 03:58:35;;;;;;;14.82;13.62;;;28.80;55.40;;;;;;4812187;55;21010;-20
2021/07/07 04:03:37;;;;;;;14.87;13.68;;;28.80;55.40;;;;;;4748249;55;21571;-22
2021/07/07 04:08:39;;;;;;;14.60;13.40;;;28.80;55.40;;;;;;4751616;55;21017;-24
2021/07/07 04:13:39;;;;;;;14.65;13.35;;;28.80;55.20;;;;;;4764699;55;21074;-21
2021/07/07 04:18:40;;;;;;;14.73;13.43;;;28.80;55.20;;;;;;4837677;55;21539;-23
2021/07/07 04:23:41;;;;;;;14.70;13.40;;;28.80;55.30;;;;;;4852698;55;21085;-22
2021/07/07 04:28:42;;;;;;;14.15;12.70;;;28.80;55.20;;;;;;4802463;55;21006;-15
2021/07/07 04:33:43;;;;;;;14.57;13.38;;;28.80;55.10;;;;;;4752747;55;21473;-22
2021/07/07 04:38:43;;;;;;;13.45;12.25;;;28.80;55.10;;;;;;4737381;55;21049;-20
2021/07/07 04:43:47;;;;;;;14.15;12.95;;;28.80;55.10;;;;;;4752757;55;20985;-16
2021/07/07 04:48:48;;;;;;;13.65;12.45;;;28.80;55.10;;;;;;4793270;55;21014;-18
2021/07/07 04:53:49;;;;;;;14.30;13.10;;;28.80;55.10;;;;;;4757600;55;21080;-23
2021/07/07 04:58:50;;;;;;;13.88;12.77;;;28.80;55.00;;;;;;4773038;55;21066;-18
2021/07/07 05:03:51;;;;;;;13.57;12.48;;;28.80;55.10;;;;;;4756890;55;21576;-19
2021/07/07 05:08:51;;;;;;;14.10;12.82;;;28.80;55.00;;;;;;4751297;55;20998;-20
2021/07/07 05:13:52;;;;;;;13.73;12.43;;;28.80;54.80;;;;;;4766371;55;21043;-22
2021/07/07 05:18:53;;;;;;;13.77;12.57;;;28.80;54.80;;;;;;4737636;59;21089;-20
2021/07/07 05:23:54;;;;;;;13.75;12.65;;;28.80;54.80;;;;;;4741933;55;21496;-20
2021/07/07 05:28:55;;;;;;;15.02;13.62;;;28.80;54.80;;;;;;4751802;55;21069;-20
2021/07/07 05:33:56;;;;;;;14.73;13.43;;;28.80;54.80;;;;;;4801341;55;21006;-22
2021/07/07 05:38:56;;;;;;;13.13;12.02;;;28.80;54.80;;;;;;4752465;55;21052;-22
2021/07/07 05:43:57;;;;;;;13.95;12.55;;;28.80;54.80;;;;;;4817344;55;20994;-18
2021/07/07 05:48:58;;;;;;;14.02;12.82;;;28.80;54.80;;;;;;4755117;55;20998;-23
2021/07/07 05:53:59;;;;;;;13.48;12.37;;;28.80;54.80;;;;;;4752922;55;21101;-17
2021/07/07 05:59:01;;;;;;;14.82;13.50;;;28.80;54.80;;;;;;4754039;55;21018;-19
2021/07/07 06:04:01;;;;;;;13.25;12.15;;;28.70;54.70;;;;;;4753014;55;21588;-22
2021/07/07 06:09:03;;;;;;;14.85;13.45;;;28.80;55.00;;;;;;4767970;55;21077;-23
2021/07/07 06:14:03;;;;;;;15.20;13.90;;;28.80;54.80;;;;;;4782784;55;21030;-16
2021/07/07 06:19:04;;;;;;;14.60;13.30;;;28.70;54.80;;;;;;4771426;55;21468;-15
2021/07/07 06:24:05;;;;;;;13.68;12.57;;;28.80;54.80;;;;;;4760219;55;21728;-21
2021/07/07 06:29:06;;;;;;;14.48;13.18;;;28.80;54.80;;;;;;4770260;55;21315;-20
2021/07/07 06:34:07;;;;;;;14.82;13.55;;;28.80;54.80;;;;;;4757464;55;21029;-21
2021/07/07 06:39:08;;;;;;;14.48;13.27;;;28.80;54.80;;;;;;4776474;55;21564;-20
2021/07/07 06:44:09;;;;;;;14.48;13.27;;;28.80;54.90;;;;;;4779559;55;21136;-22
2021/07/07 06:49:09;;;;;;;14.60;13.38;;;28.80;54.80;;;;;;4773565;55;21009;-22
2021/07/07 06:54:10;;;;;;;14.48;13.27;;;28.80;54.90;;;;;;4749778;55;21058;-19
2021/07/07 06:59:11;;;;;;;15.00;13.70;;;28.80;54.80;;;;;;4757664;55;21083;-21
2021/07/07 07:04:12;;;;;;;15.20;13.75;;;28.80;55.00;;;;;;4736728;59;21073;-23
2021/07/07 07:09:13;;;;;;;22.52;19.83;;;28.80;54.80;;;;;;4737165;59;21046;-16
2021/07/07 07:14:14;;;;;;;21.70;19.50;;;28.80;54.80;;;;;;4748898;55;21058;-21
2021/07/07 07:19:14;;;;;;;25.17;22.55;;;28.80;55.00;;;;;;4737966;59;21045;-22
2021/07/07 07:24:15;;;;;;;24.50;21.95;;;28.80;54.80;;;;;;4737009;59;21049;-18
2021/07/07 07:29:16;;;;;;;25.95;23.08;;;28.90;55.00;;;;;;4747912;55;21127;-17
2021/07/07 07:34:17;;;;;;;25.83;23.30;;;28.90;55.10;;;;;;4738003;55;21066;-18
2021/07/07 07:39:20;;;;;;;29.58;26.70;;;28.90;55.10;;;;;;4756519;55;21543;-17
2021/07/07 07:44:21;;;;;;;31.73;28.50;;;28.90;55.40;;;;;;4746546;55;21531;-23
2021/07/07 07:49:22;;;;;;;29.50;26.70;;;29.00;55.30;;;;;;4737340;59;21094;-15
2021/07/07 07:54:23;;;;;;;30.52;27.42;;;29.00;55.30;;;;;;4744697;55;21045;-20
2021/07/07 07:59:23;;;;;;;27.67;24.80;;;29.00;56.20;;;;;;4752573;55;21057;-23
2021/07/07 08:04:24;;;;;;;45.83;40.90;;;29.00;56.80;;;;;;4738293;55;21050;-21
2021/07/07 08:09:25;;;;;;;116.95;104.38;;;29.00;56.60;;;;;;4774342;55;21029;-16
2021/07/07 08:14:26;;;;;;;155.90;138.77;;;29.00;57.10;;;;;;4760952;55;21487;-20
2021/07/07 08:19:27;;;;;;;146.98;130.52;;;29.10;57.30;;;;;;4746696;55;21037;-20
2021/07/07 08:24:27;;;;;;;128.68;114.43;;;29.10;57.50;;;;;;4738086;55;21072;-18
2021/07/07 08:29:28;;;;;;;111.22;99.13;;;29.10;57.80;;;;;;4762686;55;21009;-21
2021/07/07 08:34:30;;;;;;;94.07;83.65;;;29.20;57.90;;;;;;4749283;55;20998;-18
2021/07/07 08:39:31;;;;;;;79.90;71.37;;;29.20;57.80;;;;;;4764066;55;21061;-21
2021/07/07 08:44:32;;;;;;;79.75;71.15;;;29.20;57.50;;;;;;4781179;55;21074;-18
2021/07/07 08:49:33;;;;;;;73.70;66.07;;;29.20;57.40;;;;;;4742873;55;21172;-17
2021/07/07 08:54:34;;;;;;;71.97;63.47;;;29.30;57.40;;;;;;4740345;55;21065;-20
2021/07/07 08:59:35;;;;;;;64.60;57.88;;;29.30;57.10;;;;;;4736083;59;21066;-18
2021/07/07 09:04:42;;;;;;;63.42;56.60;;;29.30;56.90;;;;;;4756135;55;21042;-21
2021/07/07 09:10:00;;;;;;;61.72;55.30;;;29.30;57.00;;;;;;4756292;55;21009;-21
2021/07/07 09:15:07;;;;;;;56.22;50.15;;;29.30;56.30;;;;;;4746259;55;21053;-16
2021/07/07 09:20:23;;;;;;;56.40;50.45;;;29.30;55.80;;;;;;4751911;55;21005;-18
2021/07/07 09:25:28;;;;;;;53.42;48.05;;;29.30;55.60;;;;;;4739123;55;20983;-17
2021/07/07 09:30:32;;;;;;;50.97;45.85;;;29.40;55.40;;;;;;4750748;55;20982;-21
2021/07/07 09:35:33;;;;;;;51.17;46.05;;;29.40;55.20;;;;;;4767313;55;21102;-18
2021/07/07 09:40:40;;;;;;;53.35;47.45;;;29.40;54.80;;;;;;4749740;55;21556;-20
2021/07/07 09:45:43;;;;;;;51.58;46.15;;;29.40;53.80;;;;;;4756642;55;21520;-14
2021/07/07 09:50:44;;;;;;;48.03;42.90;;;29.40;54.00;;;;;;4755102;55;21987;-23
2021/07/07 09:55:45;;;;;;;47.15;42.25;;;29.50;53.40;;;;;;4766414;55;21014;-21
2021/07/07 10:00:46;;;;;;;43.72;39.05;;;29.50;53.20;;;;;;4780136;55;22049;-17
2021/07/07 10:05:48;;;;;;;42.95;38.45;;;29.50;52.50;;;;;;4754065;55;20986;-19
2021/07/07 10:10:49;;;;;;;40.20;35.83;;;29.50;52.10;;;;;;4742344;55;21081;-18
2021/07/07 10:15:51;;;;;;;44.25;37.05;;;29.60;51.30;;;;;;4737105;59;21729;-22
2021/07/07 10:20:52;;;;;;;42.30;33.97;;;29.60;50.30;;;;;;4737167;59;21010;-18
2021/07/07 10:25:53;;;;;;;42.92;35.55;;;29.60;50.00;;;;;;4744284;55;20994;-20
2021/07/07 10:30:57;;;;;;;41.45;33.80;;;29.60;49.50;;;;;;4792740;55;21066;-21
2021/07/07 10:36:28;;;;;;;37.47;32.20;;;29.70;48.50;;;;;;4737275;59;21497;-20
2021/07/07 10:41:53;;;;;;;36.63;29.58;;;29.70;48.90;;;;;;4763702;55;21027;-18
2021/07/07 10:47:06;;;;;;;30.42;26.77;;;29.80;48.80;;;;;;4751171;55;20997;-17
2021/07/07 10:52:10;;;;;;;32.85;28.42;;;29.80;48.00;;;;;;4808128;55;21464;-22
2021/07/07 10:57:20;;;;;;;31.25;27.85;;;29.80;47.10;;;;;;4751880;55;21535;-20
2021/07/07 11:02:26;;;;;;;32.33;28.98;;;29.90;47.20;;;;;;4737851;55;21102;-19
2021/07/07 11:07:41;;;;;;;33.05;28.08;;;29.90;46.80;;;;;;4764677;55;21521;-21
2021/07/07 11:13:15;;;;;;;30.60;27.50;;;29.90;46.80;;;;;;4737409;59;21058;-17
2021/07/07 11:18:18;;;;;;;30.58;26.87;;;29.90;47.10;;;;;;4756674;55;20990;-18
2021/07/07 11:23:20;;;;;;;36.45;28.10;;;29.90;46.60;;;;;;4737573;59;21503;-23
2021/07/07 11:28:21;;;;;;;31.55;27.23;;;29.90;46.00;;;;;;4744471;55;21130;-23
2021/07/07 11:33:22;;;;;;;31.00;26.50;;;29.90;46.30;;;;;;4753074;55;21603;-18
2021/07/07 11:38:26;;;;;;;25.60;22.90;;;29.90;46.00;;;;;;4753264;55;21038;-21
2021/07/07 11:43:30;;;;;;;30.17;25.83;;;29.90;46.20;;;;;;4767407;55;21081;-19
2021/07/07 11:53:55;;;;;;;29.83;26.73;;;30.00;46.50;;;;;;4758767;55;21073;-16
2021/07/07 11:59:02;;;;;;;29.15;25.88;;;30.00;46.80;;;;;;4743624;55;21508;-19
2021/07/07 12:04:12;;;;;;;28.45;25.45;;;30.00;47.20;;;;;;4767958;55;21113;-17
2021/07/07 12:09:18;;;;;;;28.40;25.65;;;30.10;47.30;;;;;;4759593;55;20982;-20
2021/07/07 12:14:20;;;;;;;27.65;24.85;;;30.10;47.30;;;;;;4775759;55;21460;-21
2021/07/07 12:19:22;;;;;;;25.52;22.95;;;30.10;47.10;;;;;;4776234;55;21551;-20
2021/07/07 12:24:29;;;;;;;26.58;23.67;;;30.20;46.90;;;;;;4738083;59;21065;-17
2021/07/07 12:29:39;;;;;;;23.23;20.95;;;30.20;47.20;;;;;;4749393;55;21082;-16
2021/07/07 12:34:49;;;;;;;23.40;21.20;;;30.20;47.20;;;;;;4788001;55;21022;-17
2021/07/07 12:39:59;;;;;;;25.37;22.85;;;30.30;47.70;;;;;;4761765;55;20990;-19
2021/07/07 12:45:12;;;;;;;26.27;23.65;;;30.30;47.80;;;;;;4752923;55;21529;-23
2021/07/07 12:50:18;;;;;;;25.08;21.77;;;30.30;48.10;;;;;;4765005;55;20994;-19
2021/07/07 12:55:26;;;;;;;24.10;21.52;;;30.30;47.60;;;;;;4753583;55;21091;-19
2021/07/07 13:00:46;;;;;;;29.12;26.00;;;30.40;47.90;;;;;;4760163;55;21034;-18
2021/07/07 13:05:54;;;;;;;33.15;29.65;;;30.40;48.10;;;;;;4737592;59;21520;-16
2021/07/07 13:10:56;;;;;;;30.88;27.73;;;30.50;48.60;;;;;;4760738;55;21508;-15
2021/07/07 13:16:12;;;;;;;32.05;28.75;;;30.50;49.10;;;;;;4753892;55;21611;-18
2021/07/07 13:21:13;;;;;;;31.98;27.45;;;30.50;49.40;;;;;;4786802;55;21485;-18
2021/07/07 13:26:28;;;;;;;26.58;24.02;;;30.50;50.00;;;;;;4778027;55;21002;-20
2021/07/07 13:31:29;;;;;;;27.73;24.98;;;30.50;50.00;;;;;;4765143;55;20958;-20
2021/07/07 13:36:35;;;;;;;26.50;23.95;;;30.50;50.10;;;;;;4765671;55;21006;-19
2021/07/07 13:41:37;;;;;;;27.75;24.98;;;30.50;50.20;;;;;;4783763;55;21516;-21
2021/07/07 13:46:38;;;;;;;28.58;25.83;;;30.50;50.20;;;;;;4736072;59;21090;-20
2021/07/07 13:51:38;;;;;;;32.42;29.05;;;30.50;50.10;;;;;;4739429;55;21065;-17
2021/07/07 13:56:39;;;;;;;31.48;28.23;;;30.50;50.00;;;;;;4775571;55;21022;-18
2021/07/07 14:01:40;;;;;;;30.20;27.02;;;30.50;50.10;;;;;;4765323;55;21031;-18
2021/07/07 14:06:41;;;;;;;30.98;27.87;;;30.50;50.00;;;;;;4737619;55;21484;-16
2021/07/07 14:11:42;;;;;;;29.60;26.45;;;30.50;49.90;;;;;;4742366;55;21089;-20
2021/07/07 14:16:43;;;;;;;26.87;24.37;;;30.50;49.60;;;;;;4764861;55;21105;-23
2021/07/07 14:21:44;;;;;;;26.73;24.23;;;30.50;49.60;;;;;;4742472;55;20998;-25
2021/07/07 14:26:45;;;;;;;27.20;24.67;;;30.40;50.00;;;;;;4772331;55;21034;-22
2021/07/07 14:31:46;;;;;;;26.42;23.98;;;30.40;50.20;;;;;;4737838;59;21548;-23
2021/07/07 14:36:47;;;;;;;26.05;23.55;;;30.30;50.40;;;;;;4742426;55;21084;-19
2021/07/07 14:41:48;;;;;;;24.15;21.75;;;30.30;49.90;;;;;;4751377;55;20987;-21
2021/07/07 14:46:53;;;;;;;27.67;23.98;;;30.30;49.00;;;;;;4745474;55;21283;-22
2021/07/07 14:51:55;;;;;;;27.57;24.80;;;30.40;48.60;;;;;;4743331;55;21022;-18
2021/07/07 14:56:56;;;;;;;28.15;25.15;;;30.40;48.40;;;;;;4736383;59;21524;-21
2021/07/07 15:02:01;;;;;;;28.50;25.60;;;30.50;48.60;;;;;;4754434;55;21099;-17
2021/07/07 15:07:02;;;;;;;27.08;24.35;;;30.40;48.90;;;;;;4826793;55;21018;-24
2021/07/07 15:12:03;;;;;;;27.00;24.12;;;30.30;49.10;;;;;;4774654;55;21061;-22
2021/07/07 15:17:04;;;;;;;26.35;23.67;;;30.20;49.30;;;;;;4781031;55;21115;-18
2021/07/07 15:22:07;;;;;;;25.73;23.23;;;30.20;49.60;;;;;;4770765;55;21034;-22
2021/07/07 15:27:08;;;;;;;26.33;23.55;;;30.10;49.70;;;;;;4766790;55;21476;-19
2021/07/07 15:32:09;;;;;;;26.37;23.87;;;30.10;50.00;;;;;;4754043;55;21013;-16
2021/07/07 15:37:11;;;;;;;25.15;22.77;;;30.10;50.10;;;;;;4779037;55;21496;-22
2021/07/07 15:42:15;;;;;;;26.23;23.55;;;30.00;50.30;;;;;;4749281;55;21010;-18
2021/07/07 15:47:17;;;;;;;25.55;22.95;;;30.00;50.40;;;;;;4762674;55;22262;-21
2021/07/07 15:52:18;;;;;;;25.02;22.42;;;30.00;50.50;;;;;;4765973;55;20998;-23
2021/07/07 15:57:19;;;;;;;24.73;22.33;;;29.90;50.60;;;;;;4770183;55;21523;-19
2021/07/07 16:02:21;;;;;;;24.77;22.37;;;29.90;50.80;;;;;;4755622;55;21030;-20
2021/07/07 16:07:22;;;;;;;25.55;23.05;;;29.90;50.90;;;;;;4775361;55;21505;-21
2021/07/07 16:12:23;;;;;;;24.55;22.25;;;29.90;51.00;;;;;;4783652;55;20990;-15
2021/07/07 16:17:23;;;;;;;24.25;21.87;;;29.90;51.00;;;;;;4808599;55;21017;-18
2021/07/07 16:22:24;;;;;;;23.70;21.45;;;29.80;51.00;;;;;;4747667;55;21521;-21
2021/07/07 16:27:25;;;;;;;24.12;21.83;;;29.90;51.10;;;;;;4742855;55;21143;-20
2021/07/07 16:32:26;;;;;;;24.30;21.98;;;29.80;51.20;;;;;;4737748;59;21026;-21
2021/07/07 16:37:27;;;;;;;24.67;22.27;;;29.80;51.30;;;;;;4738234;59;21021;-23
2021/07/07 16:42:28;;;;;;;23.08;20.88;;;29.80;51.40;;;;;;4741787;55;21464;-18
2021/07/07 16:47:28;;;;;;;23.77;21.48;;;29.80;51.40;;;;;;4760682;55;21033;-22
2021/07/07 16:52:29;;;;;;;23.50;21.30;;;29.80;51.40;;;;;;4752242;55;20998;-14
2021/07/07 16:57:31;;;;;;;24.20;21.90;;;29.80;51.50;;;;;;4737257;59;21563;-19
2021/07/07 17:02:32;;;;;;;24.85;22.48;;;29.80;51.50;;;;;;4737237;59;21520;-19
2021/07/07 17:07:33;;;;;;;22.70;20.50;;;29.80;51.60;;;;;;4737972;59;21070;-23
2021/07/07 17:12:34;;;;;;;23.38;21.12;;;29.70;51.50;;;;;;4743449;55;21010;-19
2021/07/07 17:17:35;;;;;;;23.10;20.90;;;29.70;51.60;;;;;;4748318;55;21507;-20
2021/07/07 17:22:36;;;;;;;23.87;21.67;;;29.80;51.70;;;;;;4751157;55;21025;-23
2021/07/07 17:27:37;;;;;;;22.92;20.73;;;29.80;51.80;;;;;;4750558;55;21603;-18
2021/07/07 17:32:37;;;;;;;22.33;20.33;;;29.80;51.90;;;;;;4750873;55;21085;-20
2021/07/07 17:37:38;;;;;;;22.40;20.35;;;29.70;51.70;;;;;;4745972;55;21508;-17
2021/07/07 17:42:40;;;;;;;23.50;21.30;;;29.70;51.70;;;;;;4799736;55;21053;-13
2021/07/07 17:47:41;;;;;;;22.62;20.42;;;29.70;51.80;;;;;;4750275;55;21033;-18
2021/07/07 17:52:42;;;;;;;22.62;20.52;;;29.70;51.80;;;;;;4749601;55;21441;-21
2021/07/07 17:57:43;;;;;;;22.33;20.15;;;29.70;51.80;;;;;;4744190;55;21005;-18
2021/07/07 18:02:44;;;;;;;23.15;20.92;;;29.70;51.90;;;;;;4750120;55;21042;-23
2021/07/07 18:07:45;;;;;;;21.50;19.50;;;29.70;52.00;;;;;;4763233;55;20994;-21
2021/07/07 18:12:45;;;;;;;22.92;20.83;;;29.70;51.90;;;;;;4742243;55;21025;-20
2021/07/07 18:17:46;;;;;;;21.95;19.75;;;29.70;52.00;;;;;;4801082;55;21461;-18
2021/07/07 18:22:47;;;;;;;21.40;19.50;;;29.70;52.00;;;;;;4738057;55;21065;-18
2021/07/07 18:27:48;;;;;;;22.15;20.05;;;29.70;52.00;;;;;;4753689;55;21010;-21
2021/07/07 18:32:52;;;;;;;21.80;19.80;;;29.60;52.00;;;;;;4737434;59;21093;-20
2021/07/07 18:37:53;;;;;;;22.05;19.95;;;29.70;52.10;;;;;;4749856;55;21163;-22
2021/07/07 18:42:55;;;;;;;21.62;19.62;;;29.70;52.10;;;;;;4735986;59;21441;-20
2021/07/07 18:47:56;;;;;;;21.23;19.33;;;29.70;52.20;;;;;;4747653;55;21058;-19
2021/07/07 18:52:57;;;;;;;21.48;19.48;;;29.70;52.20;;;;;;4738336;59;21055;-21
2021/07/07 18:57:58;;;;;;;21.05;19.15;;;29.70;52.20;;;;;;4747470;55;21005;-22
2021/07/07 19:02:59;;;;;;;21.05;19.15;;;29.60;52.20;;;;;;4737149;59;21102;-20
2021/07/07 19:07:59;;;;;;;22.33;20.12;;;29.70;52.30;;;;;;4782529;55;21089;-21
2021/07/07 19:13:00;;;;;;;21.37;19.27;;;29.70;52.30;;;;;;4737797;59;21010;-22
2021/07/07 19:18:01;;;;;;;22.08;19.98;;;29.60;52.40;;;;;;4742611;55;21493;-20
2021/07/07 19:23:02;;;;;;;21.55;19.52;;;29.60;52.50;;;;;;4737680;59;21062;-20
2021/07/07 19:28:06;;;;;;;21.77;19.77;;;29.70;52.50;;;;;;4747190;55;21010;-23
2021/07/07 19:33:07;;;;;;;20.45;18.67;;;29.70;52.50;;;;;;4740862;55;21088;-21
2021/07/07 19:38:08;;;;;;;21.95;20.05;;;29.60;52.50;;;;;;4740074;55;21097;-22
2021/07/07 19:43:11;;;;;;;22.40;20.40;;;29.60;52.50;;;;;;4740499;55;21065;-17
2021/07/07 19:48:14;;;;;;;22.00;20.00;;;29.60;52.60;;;;;;4737774;59;20994;-19
2021/07/07 19:53:15;;;;;;;21.95;19.95;;;29.60;52.60;;;;;;4771339;55;21042;-20
2021/07/07 19:58:16;;;;;;;22.55;20.45;;;29.60;52.70;;;;;;4737961;55;21754;-17
2021/07/07 20:03:17;;;;;;;22.75;20.45;;;29.60;52.70;;;;;;4736735;55;21038;-17
2021/07/07 20:08:20;;;;;;;22.27;20.17;;;29.60;52.70;;;;;;4748263;55;21147;-19
2021/07/07 20:13:21;;;;;;;22.70;20.52;;;29.60;52.80;;;;;;4783725;55;21628;-19
2021/07/07 20:18:22;;;;;;;22.52;20.45;;;29.60;52.90;;;;;;4782946;55;21081;-14
2021/07/07 20:23:24;;;;;;;22.50;20.40;;;29.60;52.90;;;;;;4769715;55;21066;-17
2021/07/07 20:28:26;;;;;;;21.85;19.85;;;29.60;52.90;;;;;;4738312;59;21100;-15
2021/07/07 20:33:28;;;;;;;21.95;19.77;;;29.60;53.00;;;;;;4750585;55;21128;-21
2021/07/07 20:38:31;;;;;;;21.37;19.35;;;29.60;53.00;;;;;;4789586;55;22004;-23
2021/07/07 20:43:32;;;;;;;22.00;19.95;;;29.50;53.00;;;;;;4777201;55;21500;-22
2021/07/07 20:48:33;;;;;;;21.90;19.75;;;29.60;53.00;;;;;;4770096;55;21520;-21
2021/07/07 20:53:34;;;;;;;21.12;19.20;;;29.50;53.70;;;;;;4753523;55;21086;-21
2021/07/07 20:58:35;;;;;;;20.92;18.92;;;29.60;53.10;;;;;;4774395;55;21014;-22
2021/07/07 21:03:35;;;;;;;22.00;19.90;;;29.60;53.20;;;;;;4736795;59;21583;-21
2021/07/07 21:08:36;;;;;;;21.20;19.30;;;29.60;53.80;;;;;;4738957;55;21038;-22
2021/07/07 21:13:37;;;;;;;21.33;19.33;;;29.50;53.10;;;;;;4754528;55;21081;-22
2021/07/07 21:18:38;;;;;;;20.98;19.05;;;29.50;53.10;;;;;;4739150;55;21041;-21
2021/07/07 21:23:38;;;;;;;20.15;18.30;;;29.50;53.20;;;;;;4739898;55;21101;-21
2021/07/07 21:28:39;;;;;;;20.00;18.20;;;29.50;53.10;;;;;;4756836;55;21010;-20
2021/07/07 21:33:40;;;;;;;20.52;18.52;;;29.50;53.20;;;;;;4808115;55;20994;-22
2021/07/07 21:38:41;;;;;;;19.45;17.67;;;29.50;53.20;;;;;;4750685;55;21053;-23
2021/07/07 21:43:42;;;;;;;20.05;18.35;;;29.50;53.20;;;;;;4759067;55;21452;-16
2021/07/07 21:48:43;;;;;;;19.80;18.00;;;29.50;53.20;;;;;;4756878;55;21489;-20
2021/07/07 21:53:43;;;;;;;20.25;18.45;;;29.50;53.30;;;;;;4818092;55;21005;-21
2021/07/07 21:58:44;;;;;;;19.52;17.73;;;29.50;53.30;;;;;;4797922;55;21058;-20
2021/07/07 22:03:45;;;;;;;20.10;18.23;;;29.50;53.30;;;;;;4757529;55;21038;-20
2021/07/07 22:08:46;;;;;;;20.80;18.90;;;29.50;53.30;;;;;;4742704;55;21013;-19
2021/07/07 22:13:47;;;;;;;19.85;18.00;;;29.50;53.40;;;;;;4767337;55;21048;-17
2021/07/07 22:18:48;;;;;;;19.62;17.90;;;29.50;53.40;;;;;;4751127;55;21081;-14
2021/07/07 22:23:49;;;;;;;19.85;18.05;;;29.50;53.40;;;;;;4761402;55;21062;-19
2021/07/07 22:28:50;;;;;;;19.45;17.62;;;29.50;53.50;;;;;;4738034;59;21078;-16
2021/07/07 22:33:55;;;;;;;20.00;18.20;;;29.50;53.50;;;;;;4759574;55;21472;-18
2021/07/07 22:38:55;;;;;;;19.62;17.92;;;29.50;53.50;;;;;;4753590;55;21049;-20
2021/07/07 22:43:56;;;;;;;20.12;18.33;;;29.50;53.50;;;;;;4737868;59;21093;-21
2021/07/07 22:48:57;;;;;;;19.35;17.58;;;29.50;53.50;;;;;;4781746;55;22391;-20
2021/07/07 22:53:58;;;;;;;20.67;18.83;;;29.50;53.60;;;;;;4770036;55;21013;-18
2021/07/07 22:58:59;;;;;;;18.33;16.73;;;29.50;53.60;;;;;;4744158;55;21077;-18
2021/07/07 23:04:00;;;;;;;20.12;18.12;;;29.50;53.60;;;;;;4734942;55;21093;-20
2021/07/07 23:09:01;;;;;;;18.92;17.20;;;29.50;53.60;;;;;;4736440;55;21495;-20
2021/07/07 23:14:02;;;;;;;19.25;17.55;;;29.50;54.30;;;;;;4751666;55;21070;-20
2021/07/07 23:19:03;;;;;;;19.62;17.92;;;29.50;53.60;;;;;;4755440;55;21022;-21
2021/07/07 23:24:04;;;;;;;19.45;17.65;;;29.50;53.70;;;;;;4738189;55;21488;-19
2021/07/07 23:29:05;;;;;;;19.30;17.60;;;29.40;53.60;;;;;;4778458;55;21082;-24
2021/07/07 23:34:06;;;;;;;18.95;17.25;;;29.50;53.70;;;;;;4735336;59;21049;-18
2021/07/07 23:39:07;;;;;;;19.17;17.48;;;29.50;53.70;;;;;;4735483;59;21488;-17
2021/07/07 23:44:08;;;;;;;18.48;16.83;;;29.50;53.70;;;;;;4757032;55;21485;-21
2021/07/07 23:49:09;;;;;;;18.85;17.12;;;29.50;53.70;;;;;;4861346;55;21025;-18
2021/07/07 23:54:10;;;;;;;19.50;17.80;;;29.50;53.80;;;;;;4740429;55;20994;-21
2021/07/07 23:59:12;;;;;;;18.62;16.92;;;29.50;53.80;;;;;;4793378;55;21145;-23
